Thunder radar more information blitzortung!


Radar de pluja more information rain snow radar


Visita la nostra xarxa de llocs de meteo:

Template documentation
and downloads

And another site



No particular awareness of the weather is required.    There are no Weather-warnings

Pagina Historial Weather Underground text

Diari Resum Juny 25, 2017 Unitats:  Tant    Imperial   Mètric
« Previous Dia
SegĂźent Dia »
Diari Setmana Mensual Anual Personalitzada
  Maxima: Minima: Media:
Temperatura: TemperatureC °F /  -17.8 °C 21.2 °F /  -6 °C 25.9 °F /  -3.4 °C
Punt de rosada: DewpointC °F /  -17.8 °C 17.0 °F /  -8.3 °C 18.8 °F /  -7.3 °C
Humitat: Humidity % 50 % 66 %
Wind Speed: WindSpeedKMH mph /  0 km/h - 5.3 mph /  8.5 km/h
RĂ fegues de vent: WindSpeedGustKMH mph /  0 km/h - -
Vent:- - South
Pression baro: PressurehPa in /  0 hPa 1010.7 in /  34222.3 hPa -
Precipitacions: 0.0 in /  0 mm    
Historical Graphs
 
 
Dades de taula per Juny 25, 2017
Temps Temperatura Punt de rosada Pression baro Vent Wind Speed RĂ fegues de vent Humitat Rainfall Rate (Hourly)
TemperatureC °F /  -17.8 °C DewpointC °F /  -17.8 °C PressurehPa in /  0 hPa Calm     Humidity % HourlyPrecipMM in /  0 mm
00:02 23.3 °F /  -4.8 °C 17.7 °F /  -7.9 °C 1013.8 in /  34327.3 hPa SW 3.7 mph /  6 km/h 3.7 mph /  6 km/h 71 % 0.0 in /  0 mm
00:07 23.3 °F /  -4.8 °C 17.7 °F /  -7.9 °C 1013.8 in /  34327.3 hPa WSW 3.7 mph /  6 km/h 3.7 mph /  6 km/h 71 % 0.0 in /  0 mm
05:20 23.1 °F /  -4.9 °C 19.7 °F /  -6.8 °C 1015.8 in /  34395 hPa ESE 4.8 mph /  7.7 km/h 9.7 mph /  15.6 km/h 81 % 0.0 in /  0 mm
05:30 23.2 °F /  -4.9 °C 19.8 °F /  -6.8 °C 1015.8 in /  34395 hPa ESE 4.8 mph /  7.7 km/h 6.4 mph /  10.3 km/h 81 % 0.0 in /  0 mm
05:40 23.2 °F /  -4.9 °C 19.8 °F /  -6.8 °C 1015.8 in /  34395 hPa East 3.2 mph /  5.1 km/h 8.0 mph /  12.9 km/h 81 % 0.0 in /  0 mm
05:50 23.2 °F /  -4.9 °C 19.8 °F /  -6.8 °C 1015.8 in /  34395 hPa East 9.7 mph /  15.6 km/h 9.7 mph /  15.6 km/h 81 % 0.0 in /  0 mm
06:00 23.4 °F /  -4.8 °C 19.8 °F /  -6.8 °C 1015.8 in /  34395 hPa East 8.0 mph /  12.9 km/h 9.7 mph /  15.6 km/h 80 % 0.0 in /  0 mm
06:10 23.5 °F /  -4.7 °C 19.8 °F /  -6.8 °C 1015.8 in /  34395 hPa East 1.6 mph /  2.6 km/h 6.4 mph /  10.3 km/h 80 % 0.0 in /  0 mm
06:20 23.6 °F /  -4.7 °C 19.9 °F /  -6.7 °C 1015.8 in /  34395 hPa ESE 4.8 mph /  7.7 km/h 8.0 mph /  12.9 km/h 80 % 0.0 in /  0 mm
06:30 24.0 °F /  -4.4 °C 19.9 °F /  -6.7 °C 1016.8 in /  34428.8 hPa SE 1.6 mph /  2.6 km/h 3.2 mph /  5.1 km/h 78 % 0.0 in /  0 mm
06:40 24.0 °F /  -4.4 °C 19.9 °F /  -6.7 °C 1015.8 in /  34395 hPa ESE 3.2 mph /  5.1 km/h 8.0 mph /  12.9 km/h 78 % 0.0 in /  0 mm
11:47 24.4 °F /  -4.2 °C 20.3 °F /  -6.5 °C 1015.8 in /  34395 hPa SSW 1.9 mph /  3.1 km/h   78 % 0.0 in /  0 mm
11:52 24.4 °F /  -4.2 °C 20.1 °F /  -6.6 °C 1016.8 in /  34428.8 hPa ESE 5.6 mph /  9 km/h 5.6 mph /  9 km/h 77 % 0.0 in /  0 mm
11:57 24.5 °F /  -4.2 °C 20.2 °F /  -6.6 °C 1016.8 in /  34428.8 hPa ESE 4.7 mph /  7.6 km/h   77 % 0.0 in /  0 mm
12:02 24.4 °F /  -4.2 °C 20.1 °F /  -6.6 °C 1017.8 in /  34462.7 hPa East 5.6 mph /  9 km/h 5.6 mph /  9 km/h 77 % 0.0 in /  0 mm
12:07 24.4 °F /  -4.2 °C 20.1 °F /  -6.6 °C 1017.8 in /  34462.7 hPa East 7.9 mph /  12.7 km/h 7.9 mph /  12.7 km/h 77 % 0.0 in /  0 mm
12:12 24.5 °F /  -4.2 °C 20.0 °F /  -6.7 °C 1017.8 in /  34462.7 hPa South 7.4 mph /  11.9 km/h 7.4 mph /  11.9 km/h 76 % 0.0 in /  0 mm
12:17 24.7 °F /  -4.1 °C 20.2 °F /  -6.6 °C 1017.8 in /  34462.7 hPa ESE 9.5 mph /  15.3 km/h 9.5 mph /  15.3 km/h 76 % 0.0 in /  0 mm
12:22 24.9 °F /  -3.9 °C 20.2 °F /  -6.6 °C 1017.8 in /  34462.7 hPa SE 5.6 mph /  9 km/h 5.6 mph /  9 km/h 75 % 0.0 in /  0 mm
12:27 24.8 °F /  -4 °C 20.1 °F /  -6.6 °C 1017.8 in /  34462.7 hPa ESE 5.6 mph /  9 km/h 5.6 mph /  9 km/h 75 % 0.0 in /  0 mm
12:32 25.0 °F /  -3.9 °C 20.1 °F /  -6.6 °C 1016.8 in /  34428.8 hPa NE 3.7 mph /  6 km/h 3.7 mph /  6 km/h 74 % 0.0 in /  0 mm
12:37 25.1 °F /  -3.8 °C 19.9 °F /  -6.7 °C 1016.8 in /  34428.8 hPa ESE 9.3 mph /  15 km/h 9.3 mph /  15 km/h 73 % 0.0 in /  0 mm
12:42 25.3 °F /  -3.7 °C 20.1 °F /  -6.6 °C 1016.8 in /  34428.8 hPa ENE 11.1 mph /  17.9 km/h 11.1 mph /  17.9 km/h 73 % 0.0 in /  0 mm
12:47 25.7 °F /  -3.5 °C 20.3 °F /  -6.5 °C 1015.8 in /  34395 hPa South 5.6 mph /  9 km/h 5.6 mph /  9 km/h 72 % 0.0 in /  0 mm
12:52 25.5 °F /  -3.6 °C 19.8 °F /  -6.8 °C 1015.8 in /  34395 hPa NE 7.4 mph /  11.9 km/h 7.4 mph /  11.9 km/h 71 % 0.0 in /  0 mm
12:57 25.3 °F /  -3.7 °C 19.7 °F /  -6.8 °C 1015.8 in /  34395 hPa NW 5.6 mph /  9 km/h 5.6 mph /  9 km/h 71 % 0.0 in /  0 mm
13:02 25.4 °F /  -3.7 °C 19.8 °F /  -6.8 °C 1016.8 in /  34428.8 hPa South 5.6 mph /  9 km/h 5.6 mph /  9 km/h 71 % 0.0 in /  0 mm
13:07 25.6 °F /  -3.6 °C 19.9 °F /  -6.7 °C 1016.8 in /  34428.8 hPa SSE 3.2 mph /  5.1 km/h   71 % 0.0 in /  0 mm
13:12 26.2 °F /  -3.2 °C 20.5 °F /  -6.4 °C 1016.8 in /  34428.8 hPa South 3.7 mph /  6 km/h 3.7 mph /  6 km/h 71 % 0.0 in /  0 mm
13:17 26.7 °F /  -2.9 °C 20.8 °F /  -6.2 °C 1016.8 in /  34428.8 hPa SW 3.9 mph /  6.3 km/h 3.9 mph /  6.3 km/h 70 % 0.0 in /  0 mm
13:22 26.8 °F /  -2.9 °C 20.6 °F /  -6.3 °C 1016.8 in /  34428.8 hPa SW 5.6 mph /  9 km/h 5.6 mph /  9 km/h 69 % 0.0 in /  0 mm
13:27 26.7 °F /  -2.9 °C 20.3 °F /  -6.5 °C 1016.8 in /  34428.8 hPa SW 7.4 mph /  11.9 km/h 7.4 mph /  11.9 km/h 68 % 0.0 in /  0 mm
13:32 27.0 °F /  -2.8 °C 20.3 °F /  -6.5 °C 1016.8 in /  34428.8 hPa SW 6.1 mph /  9.8 km/h 6.1 mph /  9.8 km/h 67 % 0.0 in /  0 mm
13:37 27.0 °F /  -2.8 °C 20.1 °F /  -6.6 °C 1016.8 in /  34428.8 hPa West 9.3 mph /  15 km/h 9.3 mph /  15 km/h 66 % 0.0 in /  0 mm
13:42 26.8 °F /  -2.9 °C 19.9 °F /  -6.7 °C 1016.8 in /  34428.8 hPa East 4.2 mph /  6.8 km/h 4.2 mph /  6.8 km/h 66 % 0.0 in /  0 mm
13:47 26.5 °F /  -3.1 °C 19.6 °F /  -6.9 °C 1016.8 in /  34428.8 hPa East 7.4 mph /  11.9 km/h 7.4 mph /  11.9 km/h 66 % 0.0 in /  0 mm
13:52 26.9 °F /  -2.8 °C 20.0 °F /  -6.7 °C 1016.8 in /  34428.8 hPa ESE 5.6 mph /  9 km/h 5.6 mph /  9 km/h 66 % 0.0 in /  0 mm
13:57 27.6 °F /  -2.4 °C 20.4 °F /  -6.4 °C 1016.8 in /  34428.8 hPa South 3.7 mph /  6 km/h 3.7 mph /  6 km/h 65 % 0.0 in /  0 mm
14:02 27.7 °F /  -2.4 °C 20.3 °F /  -6.5 °C 1015.8 in /  34395 hPa WSW 6.1 mph /  9.8 km/h 6.1 mph /  9.8 km/h 64 % 0.0 in /  0 mm
14:07 27.9 °F /  -2.3 °C 20.4 °F /  -6.4 °C 1015.8 in /  34395 hPa WSW 1.9 mph /  3.1 km/h 1.9 mph /  3.1 km/h 64 % 0.0 in /  0 mm
14:12 27.9 °F /  -2.3 °C 19.9 °F /  -6.7 °C 1015.8 in /  34395 hPa South 7.4 mph /  11.9 km/h 7.4 mph /  11.9 km/h 62 % 0.0 in /  0 mm
14:17 28.4 °F /  -2 °C 20.7 °F /  -6.3 °C 1015.8 in /  34395 hPa SW 5.6 mph /  9 km/h 5.6 mph /  9 km/h 63 % 0.0 in /  0 mm
14:22 28.5 °F /  -1.9 °C 20.5 °F /  -6.4 °C 1015.8 in /  34395 hPa SSE 11.1 mph /  17.9 km/h 11.1 mph /  17.9 km/h 62 % 0.0 in /  0 mm
14:27 28.3 °F /  -2.1 °C 20.3 °F /  -6.5 °C 1015.8 in /  34395 hPa SW 3.7 mph /  6 km/h 3.7 mph /  6 km/h 62 % 0.0 in /  0 mm
14:32 28.2 °F /  -2.1 °C 20.2 °F /  -6.6 °C 1015.8 in /  34395 hPa South 7.4 mph /  11.9 km/h 7.4 mph /  11.9 km/h 62 % 0.0 in /  0 mm
14:37 28.3 °F /  -2.1 °C 20.3 °F /  -6.5 °C 1015.8 in /  34395 hPa SSE 5.6 mph /  9 km/h 5.6 mph /  9 km/h 62 % 0.0 in /  0 mm
14:42 28.3 °F /  -2.1 °C 20.1 °F /  -6.6 °C 1015.8 in /  34395 hPa SW 9.3 mph /  15 km/h 9.3 mph /  15 km/h 61 % 0.0 in /  0 mm
14:47 28.6 °F /  -1.9 °C 20.3 °F /  -6.5 °C 1015.8 in /  34395 hPa SW 7.4 mph /  11.9 km/h 7.4 mph /  11.9 km/h 61 % 0.0 in /  0 mm
14:52 29.1 °F /  -1.6 °C 20.3 °F /  -6.5 °C 1015.8 in /  34395 hPa WSW 5.6 mph /  9 km/h 5.6 mph /  9 km/h 59 % 0.0 in /  0 mm
14:57 29.5 °F /  -1.4 °C 20.7 °F /  -6.3 °C 1015.8 in /  34395 hPa SW 4.7 mph /  7.6 km/h 4.7 mph /  7.6 km/h 59 % 0.0 in /  0 mm
15:02 29.0 °F /  -1.7 °C 19.9 °F /  -6.7 °C 1014.8 in /  34361.1 hPa SW 7.4 mph /  11.9 km/h 7.4 mph /  11.9 km/h 58 % 0.0 in /  0 mm
15:07 29.5 °F /  -1.4 °C 20.4 °F /  -6.4 °C 1014.8 in /  34361.1 hPa SSW 7.4 mph /  11.9 km/h 7.4 mph /  11.9 km/h 58 % 0.0 in /  0 mm
15:12 29.3 °F /  -1.5 °C 19.6 °F /  -6.9 °C 1014.8 in /  34361.1 hPa South 3.7 mph /  6 km/h 3.9 mph /  6.3 km/h 56 % 0.0 in /  0 mm
15:17 29.3 °F /  -1.5 °C 19.9 °F /  -6.7 °C 1014.8 in /  34361.1 hPa SSW 3.7 mph /  6 km/h 3.7 mph /  6 km/h 57 % 0.0 in /  0 mm
15:22 29.5 °F /  -1.4 °C 20.1 °F /  -6.6 °C 1014.8 in /  34361.1 hPa South 5.6 mph /  9 km/h 5.6 mph /  9 km/h 57 % 0.0 in /  0 mm
15:27 29.5 °F /  -1.4 °C 20.1 °F /  -6.6 °C 1014.8 in /  34361.1 hPa SW 9.3 mph /  15 km/h 9.3 mph /  15 km/h 57 % 0.0 in /  0 mm
15:32 29.0 °F /  -1.7 °C 19.6 °F /  -6.9 °C 1014.8 in /  34361.1 hPa SSW 3.7 mph /  6 km/h 3.9 mph /  6.3 km/h 57 % 0.0 in /  0 mm
15:37 29.3 °F /  -1.5 °C 19.9 °F /  -6.7 °C 1014.8 in /  34361.1 hPa SW 11.1 mph /  17.9 km/h 11.1 mph /  17.9 km/h 57 % 0.0 in /  0 mm
15:42 29.4 °F /  -1.4 °C 20.0 °F /  -6.7 °C 1014.8 in /  34361.1 hPa WSW 16.7 mph /  26.9 km/h 16.7 mph /  26.9 km/h 57 % 0.0 in /  0 mm
15:47 29.5 °F /  -1.4 °C 20.1 °F /  -6.6 °C 1014.8 in /  34361.1 hPa SW 5.6 mph /  9 km/h 5.6 mph /  9 km/h 57 % 0.0 in /  0 mm
15:52 29.6 °F /  -1.3 °C 19.9 °F /  -6.7 °C 1014.8 in /  34361.1 hPa West 13.0 mph /  20.9 km/h 13.0 mph /  20.9 km/h 56 % 0.0 in /  0 mm
15:57 30.0 °F /  -1.1 °C 20.0 °F /  -6.7 °C 1014.8 in /  34361.1 hPa WSW 13.0 mph /  20.9 km/h 13.0 mph /  20.9 km/h 55 % 0.0 in /  0 mm
16:02 30.1 °F /  -1.1 °C 20.1 °F /  -6.6 °C 1014.8 in /  34361.1 hPa South 7.4 mph /  11.9 km/h 7.4 mph /  11.9 km/h 55 % 0.0 in /  0 mm
16:07 29.9 °F /  -1.2 °C 19.9 °F /  -6.7 °C 1014.8 in /  34361.1 hPa SSW 14.8 mph /  23.8 km/h 14.8 mph /  23.8 km/h 55 % 0.0 in /  0 mm
16:12 29.5 °F /  -1.4 °C 19.5 °F /  -6.9 °C 1013.8 in /  34327.3 hPa SSE 5.6 mph /  9 km/h 5.6 mph /  9 km/h 55 % 0.0 in /  0 mm
16:17 29.4 °F /  -1.4 °C 19.4 °F /  -7 °C 1013.8 in /  34327.3 hPa SW 5.6 mph /  9 km/h 5.6 mph /  9 km/h 55 % 0.0 in /  0 mm
16:22 28.9 °F /  -1.7 °C 19.2 °F /  -7.1 °C 1013.8 in /  34327.3 hPa WSW 7.4 mph /  11.9 km/h 7.4 mph /  11.9 km/h 56 % 0.0 in /  0 mm
16:27 29.0 °F /  -1.7 °C 19.1 °F /  -7.2 °C 1013.8 in /  34327.3 hPa WSW 4.7 mph /  7.6 km/h 4.7 mph /  7.6 km/h 55 % 0.0 in /  0 mm
16:32 29.0 °F /  -1.7 °C 19.3 °F /  -7.1 °C 1013.8 in /  34327.3 hPa SSW 3.7 mph /  6 km/h 3.7 mph /  6 km/h 56 % 0.0 in /  0 mm
16:37 29.0 °F /  -1.7 °C 19.1 °F /  -7.2 °C 1013.8 in /  34327.3 hPa SW 5.8 mph /  9.3 km/h 5.8 mph /  9.3 km/h 55 % 0.0 in /  0 mm
16:42 29.3 °F /  -1.5 °C 19.3 °F /  -7.1 °C 1013.8 in /  34327.3 hPa SSW 5.6 mph /  9 km/h 5.6 mph /  9 km/h 55 % 0.0 in /  0 mm
16:47 29.7 °F /  -1.3 °C 19.7 °F /  -6.8 °C 1013.8 in /  34327.3 hPa SW 6.1 mph /  9.8 km/h 6.1 mph /  9.8 km/h 55 % 0.0 in /  0 mm
16:52 30.2 °F /  -1 °C 19.9 °F /  -6.7 °C 1013.8 in /  34327.3 hPa West 3.9 mph /  6.3 km/h 3.9 mph /  6.3 km/h 54 % 0.0 in /  0 mm
16:57 30.5 °F /  -0.8 °C 20.2 °F /  -6.6 °C 1013.8 in /  34327.3 hPa South 9.3 mph /  15 km/h 9.3 mph /  15 km/h 54 % 0.0 in /  0 mm
17:02 30.7 °F /  -0.7 °C 20.0 °F /  -6.7 °C 1013.8 in /  34327.3 hPa SW 5.8 mph /  9.3 km/h 5.8 mph /  9.3 km/h 53 % 0.0 in /  0 mm
17:07 30.9 °F /  -0.6 °C 20.2 °F /  -6.6 °C 1013.8 in /  34327.3 hPa SW 7.4 mph /  11.9 km/h 7.4 mph /  11.9 km/h 53 % 0.0 in /  0 mm
17:12 30.7 °F /  -0.7 °C 19.7 °F /  -6.8 °C 1013.8 in /  34327.3 hPa SW 9.3 mph /  15 km/h 9.3 mph /  15 km/h 52 % 0.0 in /  0 mm
17:17 30.7 °F /  -0.7 °C 19.4 °F /  -7 °C 1013.8 in /  34327.3 hPa SW 3.7 mph /  6 km/h 3.7 mph /  6 km/h 51 % 0.0 in /  0 mm
17:22 30.4 °F /  -0.9 °C 19.1 °F /  -7.2 °C 1013.8 in /  34327.3 hPa SW 5.6 mph /  9 km/h 5.6 mph /  9 km/h 51 % 0.0 in /  0 mm
17:27 30.0 °F /  -1.1 °C 18.8 °F /  -7.3 °C 1012.8 in /  34293.4 hPa SW 3.7 mph /  6 km/h 3.7 mph /  6 km/h 51 % 0.0 in /  0 mm
17:32 29.9 °F /  -1.2 °C 18.7 °F /  -7.4 °C 1012.8 in /  34293.4 hPa SSW 6.9 mph /  11.1 km/h 6.9 mph /  11.1 km/h 51 % 0.0 in /  0 mm
17:37 29.7 °F /  -1.3 °C 18.2 °F /  -7.7 °C 1012.8 in /  34293.4 hPa West 7.4 mph /  11.9 km/h 7.4 mph /  11.9 km/h 50 % 0.0 in /  0 mm
17:38 29.7 °F /  -1.3 °C 18.2 °F /  -7.7 °C 1012.8 in /  34293.4 hPa SE 7.4 mph /  11.9 km/h 7.4 mph /  11.9 km/h 50 % 0.0 in /  0 mm
17:43 29.3 °F /  -1.5 °C 18.1 °F /  -7.7 °C 1012.8 in /  34293.4 hPa ESE 7.6 mph /  12.2 km/h 7.6 mph /  12.2 km/h 51 % 0.0 in /  0 mm
17:48 29.3 °F /  -1.5 °C 18.1 °F /  -7.7 °C 1012.8 in /  34293.4 hPa SW 3.2 mph /  5.1 km/h 3.2 mph /  5.1 km/h 51 % 0.0 in /  0 mm
17:53 29.4 °F /  -1.4 °C 18.2 °F /  -7.7 °C 1012.8 in /  34293.4 hPa SW 13.0 mph /  20.9 km/h 13.0 mph /  20.9 km/h 51 % 0.0 in /  0 mm
17:54 29.3 °F /  -1.5 °C 17.8 °F /  -7.9 °C 1012.8 in /  34293.4 hPa WSW 13.0 mph /  20.9 km/h 13.0 mph /  20.9 km/h 50 % 0.0 in /  0 mm
17:59 29.4 °F /  -1.4 °C 18.2 °F /  -7.7 °C 1011.7 in /  34256.2 hPa SW 7.4 mph /  11.9 km/h 7.4 mph /  11.9 km/h 51 % 0.0 in /  0 mm
18:04 29.6 °F /  -1.3 °C 18.4 °F /  -7.6 °C 1011.7 in /  34256.2 hPa SSW 13.0 mph /  20.9 km/h 13.0 mph /  20.9 km/h 51 % 0.0 in /  0 mm
18:09 29.3 °F /  -1.5 °C 18.1 °F /  -7.7 °C 1011.7 in /  34256.2 hPa SSW 11.1 mph /  17.9 km/h 11.1 mph /  17.9 km/h 51 % 0.0 in /  0 mm
18:14 29.1 °F /  -1.6 °C 17.6 °F /  -8 °C 1012.8 in /  34293.4 hPa West 9.3 mph /  15 km/h 9.3 mph /  15 km/h 50 % 0.0 in /  0 mm
18:19 29.2 °F /  -1.6 °C 17.7 °F /  -7.9 °C 1012.8 in /  34293.4 hPa WSW 6.1 mph /  9.8 km/h 6.1 mph /  9.8 km/h 50 % 0.0 in /  0 mm
18:24 29.3 °F /  -1.5 °C 17.8 °F /  -7.9 °C 1012.8 in /  34293.4 hPa SW 7.4 mph /  11.9 km/h 7.4 mph /  11.9 km/h 50 % 0.0 in /  0 mm
18:29 29.2 °F /  -1.6 °C 17.7 °F /  -7.9 °C 1011.7 in /  34256.2 hPa WSW 7.4 mph /  11.9 km/h 7.4 mph /  11.9 km/h 50 % 0.0 in /  0 mm
18:34 29.1 °F /  -1.6 °C 17.6 °F /  -8 °C 1011.7 in /  34256.2 hPa West 7.4 mph /  11.9 km/h 7.4 mph /  11.9 km/h 50 % 0.0 in /  0 mm
18:39 28.9 °F /  -1.7 °C 17.7 °F /  -7.9 °C 1011.7 in /  34256.2 hPa West 6.1 mph /  9.8 km/h 6.1 mph /  9.8 km/h 51 % 0.0 in /  0 mm
18:44 28.8 °F /  -1.8 °C 17.3 °F /  -8.2 °C 1011.7 in /  34256.2 hPa WSW 3.7 mph /  6 km/h   50 % 0.0 in /  0 mm
18:49 28.8 °F /  -1.8 °C 17.3 °F /  -8.2 °C 1011.7 in /  34256.2 hPa WSW 5.6 mph /  9 km/h 5.6 mph /  9 km/h 50 % 0.0 in /  0 mm
18:54 28.6 °F /  -1.9 °C 17.2 °F /  -8.2 °C 1011.7 in /  34256.2 hPa SW 5.6 mph /  9 km/h 5.6 mph /  9 km/h 50 % 0.0 in /  0 mm
18:59 28.5 °F /  -1.9 °C 17.4 °F /  -8.1 °C 1011.7 in /  34256.2 hPa SW 3.9 mph /  6.3 km/h 3.9 mph /  6.3 km/h 51 % 0.0 in /  0 mm
19:04 28.5 °F /  -1.9 °C 17.4 °F /  -8.1 °C 1011.7 in /  34256.2 hPa WSW 7.9 mph /  12.7 km/h 7.9 mph /  12.7 km/h 51 % 0.0 in /  0 mm
19:09 28.3 °F /  -2.1 °C 17.2 °F /  -8.2 °C 1011.7 in /  34256.2 hPa SW 9.3 mph /  15 km/h 9.3 mph /  15 km/h 51 % 0.0 in /  0 mm
19:10 23.2 °F /  -4.9 °C 18.9 °F /  -7.3 °C 1012.8 in /  34293.4 hPa ENE 3.2 mph /  5.1 km/h 4.8 mph /  7.7 km/h 77 % 0.0 in /  0 mm
19:14 28.2 °F /  -2.1 °C 17.4 °F /  -8.1 °C 1010.7 in /  34222.3 hPa SSW 5.6 mph /  9 km/h 5.6 mph /  9 km/h 52 % 0.0 in /  0 mm
19:19 27.9 °F /  -2.3 °C 17.1 °F /  -8.3 °C 1010.7 in /  34222.3 hPa SW 7.4 mph /  11.9 km/h 7.4 mph /  11.9 km/h 52 % 0.0 in /  0 mm
19:20 23.0 °F /  -5 °C 18.6 °F /  -7.4 °C 1012.8 in /  34293.4 hPa ESE 3.2 mph /  5.1 km/h 3.2 mph /  5.1 km/h 76 % 0.0 in /  0 mm
19:24 27.8 °F /  -2.3 °C 17.3 °F /  -8.2 °C 1010.7 in /  34222.3 hPa SW 6.4 mph /  10.3 km/h 6.4 mph /  10.3 km/h 53 % 0.0 in /  0 mm
19:29 27.5 °F /  -2.5 °C 17.1 °F /  -8.3 °C 1011.7 in /  34256.2 hPa SSW 7.4 mph /  11.9 km/h 7.4 mph /  11.9 km/h 53 % 0.0 in /  0 mm
19:30 22.8 °F /  -5.1 °C 18.6 °F /  -7.4 °C 1013.8 in /  34327.3 hPa SSW 1.6 mph /  2.6 km/h 3.2 mph /  5.1 km/h 77 % 0.0 in /  0 mm
19:34 27.4 °F /  -2.6 °C 17.3 °F /  -8.2 °C 1011.7 in /  34256.2 hPa WSW 3.9 mph /  6.3 km/h   54 % 0.0 in /  0 mm
19:39 27.3 °F /  -2.6 °C 17.2 °F /  -8.2 °C 1011.7 in /  34256.2 hPa SSW 9.3 mph /  15 km/h 9.3 mph /  15 km/h 54 % 0.0 in /  0 mm
19:40 22.8 °F /  -5.1 °C 18.6 °F /  -7.4 °C 1012.8 in /  34293.4 hPa SW 3.2 mph /  5.1 km/h 6.4 mph /  10.3 km/h 77 % 0.0 in /  0 mm
19:44 27.1 °F /  -2.7 °C 17.0 °F /  -8.3 °C 1011.7 in /  34256.2 hPa SSW 7.4 mph /  11.9 km/h 7.4 mph /  11.9 km/h 54 % 0.0 in /  0 mm
19:49 27.1 °F /  -2.7 °C 17.0 °F /  -8.3 °C 1011.7 in /  34256.2 hPa SW 7.4 mph /  11.9 km/h 7.4 mph /  11.9 km/h 54 % 0.0 in /  0 mm
19:50 22.7 °F /  -5.2 °C 18.7 °F /  -7.4 °C 1012.8 in /  34293.4 hPa Calm   3.2 mph /  5.1 km/h 78 % 0.0 in /  0 mm
19:54 26.9 °F /  -2.8 °C 17.1 °F /  -8.3 °C 1011.7 in /  34256.2 hPa SW 7.4 mph /  11.9 km/h 7.4 mph /  11.9 km/h 55 % 0.0 in /  0 mm
19:59 26.8 °F /  -2.9 °C 17.3 °F /  -8.2 °C 1011.7 in /  34256.2 hPa SW 6.9 mph /  11.1 km/h 6.9 mph /  11.1 km/h 56 % 0.0 in /  0 mm
20:00 22.7 °F /  -5.2 °C 18.9 °F /  -7.3 °C 1012.8 in /  34293.4 hPa SW 3.2 mph /  5.1 km/h 3.2 mph /  5.1 km/h 79 % 0.0 in /  0 mm
20:04 26.7 °F /  -2.9 °C 17.2 °F /  -8.2 °C 1011.7 in /  34256.2 hPa SSW 7.4 mph /  11.9 km/h 7.4 mph /  11.9 km/h 56 % 0.0 in /  0 mm
20:09 26.5 °F /  -3.1 °C 17.0 °F /  -8.3 °C 1011.7 in /  34256.2 hPa SW 9.3 mph /  15 km/h 9.3 mph /  15 km/h 56 % 0.0 in /  0 mm
20:10 22.7 °F /  -5.2 °C 18.7 °F /  -7.4 °C 1012.8 in /  34293.4 hPa SW 1.6 mph /  2.6 km/h 3.2 mph /  5.1 km/h 78 % 0.0 in /  0 mm
20:14 26.4 °F /  -3.1 °C 17.2 °F /  -8.2 °C 1011.7 in /  34256.2 hPa West 7.4 mph /  11.9 km/h 7.4 mph /  11.9 km/h 57 % 0.0 in /  0 mm
20:19 26.4 °F /  -3.1 °C 17.2 °F /  -8.2 °C 1011.7 in /  34256.2 hPa SW 3.9 mph /  6.3 km/h 3.9 mph /  6.3 km/h 57 % 0.0 in /  0 mm
20:20 22.6 °F /  -5.2 °C 18.8 °F /  -7.3 °C 1012.8 in /  34293.4 hPa Calm   3.2 mph /  5.1 km/h 79 % 0.0 in /  0 mm
20:24 26.4 °F /  -3.1 °C 17.4 °F /  -8.1 °C 1011.7 in /  34256.2 hPa SW 3.7 mph /  6 km/h 3.7 mph /  6 km/h 58 % 0.0 in /  0 mm
20:29 26.2 °F /  -3.2 °C 17.3 °F /  -8.2 °C 1011.7 in /  34256.2 hPa SSW 3.7 mph /  6 km/h 3.7 mph /  6 km/h 58 % 0.0 in /  0 mm
20:30 22.5 °F /  -5.3 °C 18.7 °F /  -7.4 °C 1011.7 in /  34256.2 hPa WSW 1.6 mph /  2.6 km/h 3.2 mph /  5.1 km/h 79 % 0.0 in /  0 mm
20:34 26.2 °F /  -3.2 °C 17.3 °F /  -8.2 °C 1011.7 in /  34256.2 hPa WSW 1.9 mph /  3.1 km/h   58 % 0.0 in /  0 mm
20:39 26.1 °F /  -3.3 °C 17.4 °F /  -8.1 °C 1011.7 in /  34256.2 hPa South 3.7 mph /  6 km/h   59 % 0.0 in /  0 mm
20:40 22.5 °F /  -5.3 °C 18.7 °F /  -7.4 °C 1012.8 in /  34293.4 hPa WSW 3.2 mph /  5.1 km/h 3.2 mph /  5.1 km/h 79 % 0.0 in /  0 mm
20:44 26.0 °F /  -3.3 °C 17.4 °F /  -8.1 °C 1011.7 in /  34256.2 hPa Calm     59 % 0.0 in /  0 mm
20:49 25.9 °F /  -3.4 °C 17.3 °F /  -8.2 °C 1011.7 in /  34256.2 hPa SW 3.7 mph /  6 km/h 3.7 mph /  6 km/h 59 % 0.0 in /  0 mm
20:50 22.5 °F /  -5.3 °C 18.9 °F /  -7.3 °C 1012.8 in /  34293.4 hPa West 1.6 mph /  2.6 km/h 3.2 mph /  5.1 km/h 80 % 0.0 in /  0 mm
20:54 25.7 °F /  -3.5 °C 17.3 °F /  -8.2 °C 1011.7 in /  34256.2 hPa SW 3.7 mph /  6 km/h 3.7 mph /  6 km/h 60 % 0.0 in /  0 mm
20:59 25.6 °F /  -3.6 °C 17.3 °F /  -8.2 °C 1011.7 in /  34256.2 hPa WSW 2.3 mph /  3.7 km/h   60 % 0.0 in /  0 mm
21:00 22.5 °F /  -5.3 °C 18.9 °F /  -7.3 °C 1012.8 in /  34293.4 hPa Calm   1.6 mph /  2.6 km/h 80 % 0.0 in /  0 mm
21:04 25.5 °F /  -3.6 °C 17.2 °F /  -8.2 °C 1011.7 in /  34256.2 hPa SW 1.9 mph /  3.1 km/h   60 % 0.0 in /  0 mm
21:09 25.4 °F /  -3.7 °C 17.3 °F /  -8.2 °C 1011.7 in /  34256.2 hPa Calm     61 % 0.0 in /  0 mm
21:10 22.5 °F /  -5.3 °C 19.1 °F /  -7.2 °C 1011.7 in /  34256.2 hPa Calm   1.6 mph /  2.6 km/h 81 % 0.0 in /  0 mm
21:14 25.1 °F /  -3.8 °C 17.8 °F /  -7.9 °C 1011.7 in /  34256.2 hPa ESE 5.6 mph /  9 km/h 5.6 mph /  9 km/h 64 % 0.0 in /  0 mm
21:19 25.0 °F /  -3.9 °C 17.9 °F /  -7.8 °C 1011.7 in /  34256.2 hPa East 3.7 mph /  6 km/h 3.7 mph /  6 km/h 65 % 0.0 in /  0 mm
21:20 22.4 °F /  -5.3 °C 19.2 °F /  -7.1 °C 1011.7 in /  34256.2 hPa ENE 1.6 mph /  2.6 km/h 3.2 mph /  5.1 km/h 82 % 0.0 in /  0 mm
21:24 24.8 °F /  -4 °C 18.3 °F /  -7.6 °C 1011.7 in /  34256.2 hPa ENE 5.6 mph /  9 km/h 5.6 mph /  9 km/h 67 % 0.0 in /  0 mm
21:29 24.6 °F /  -4.1 °C 18.3 °F /  -7.6 °C 1011.7 in /  34256.2 hPa ENE 7.4 mph /  11.9 km/h 7.4 mph /  11.9 km/h 68 % 0.0 in /  0 mm
21:30 22.2 °F /  -5.4 °C 19.0 °F /  -7.2 °C 1011.7 in /  34256.2 hPa Calm   3.2 mph /  5.1 km/h 82 % 0.0 in /  0 mm
21:34 24.5 °F /  -4.2 °C 18.2 °F /  -7.7 °C 1011.7 in /  34256.2 hPa ENE 7.4 mph /  11.9 km/h 7.4 mph /  11.9 km/h 68 % 0.0 in /  0 mm
21:39 24.3 °F /  -4.3 °C 18.2 °F /  -7.7 °C 1011.7 in /  34256.2 hPa East 7.4 mph /  11.9 km/h 7.4 mph /  11.9 km/h 69 % 0.0 in /  0 mm
21:40 22.1 °F /  -5.5 °C 18.9 °F /  -7.3 °C 1011.7 in /  34256.2 hPa Calm   3.2 mph /  5.1 km/h 82 % 0.0 in /  0 mm
21:44 24.2 °F /  -4.3 °C 18.4 °F /  -7.6 °C 1011.7 in /  34256.2 hPa East 7.4 mph /  11.9 km/h 7.4 mph /  11.9 km/h 70 % 0.0 in /  0 mm
21:49 24.1 °F /  -4.4 °C 18.7 °F /  -7.4 °C 1011.7 in /  34256.2 hPa ENE 9.3 mph /  15 km/h 9.3 mph /  15 km/h 72 % 0.0 in /  0 mm
21:50 21.8 °F /  -5.7 °C 18.6 °F /  -7.4 °C 1011.7 in /  34256.2 hPa SW 3.2 mph /  5.1 km/h 4.8 mph /  7.7 km/h 82 % 0.0 in /  0 mm
21:54 24.0 °F /  -4.4 °C 18.7 °F /  -7.4 °C 1011.7 in /  34256.2 hPa ENE 13.0 mph /  20.9 km/h 13.0 mph /  20.9 km/h 72 % 0.0 in /  0 mm
21:56 24.0 °F /  -4.4 °C 18.4 °F /  -7.6 °C 1011.7 in /  34256.2 hPa ESE 11.1 mph /  17.9 km/h 11.1 mph /  17.9 km/h 71 % 0.0 in /  0 mm
22:00 21.8 °F /  -5.7 °C 18.6 °F /  -7.4 °C 1011.7 in /  34256.2 hPa WSW 3.2 mph /  5.1 km/h 3.2 mph /  5.1 km/h 82 % 0.0 in /  0 mm
22:01 23.9 °F /  -4.5 °C 19.0 °F /  -7.2 °C 1011.7 in /  34256.2 hPa ENE 9.3 mph /  15 km/h 9.3 mph /  15 km/h 74 % 0.0 in /  0 mm
22:06 23.8 °F /  -4.6 °C 18.9 °F /  -7.3 °C 1011.7 in /  34256.2 hPa ESE 5.6 mph /  9 km/h 5.6 mph /  9 km/h 74 % 0.0 in /  0 mm
22:10 21.8 °F /  -5.7 °C 18.8 °F /  -7.3 °C 1012.8 in /  34293.4 hPa WSW 1.6 mph /  2.6 km/h 3.2 mph /  5.1 km/h 83 % 0.0 in /  0 mm
22:11 23.8 °F /  -4.6 °C 18.9 °F /  -7.3 °C 1011.7 in /  34256.2 hPa East 3.9 mph /  6.3 km/h 3.9 mph /  6.3 km/h 74 % 0.0 in /  0 mm
22:16 23.8 °F /  -4.6 °C 18.7 °F /  -7.4 °C 1011.7 in /  34256.2 hPa Calm     73 % 0.0 in /  0 mm
22:20 21.8 °F /  -5.7 °C 18.8 °F /  -7.3 °C 1012.8 in /  34293.4 hPa WSW 1.6 mph /  2.6 km/h 3.2 mph /  5.1 km/h 83 % 0.0 in /  0 mm
22:21 23.8 °F /  -4.6 °C 18.9 °F /  -7.3 °C 1011.7 in /  34256.2 hPa South 3.7 mph /  6 km/h   74 % 0.0 in /  0 mm
22:26 23.8 °F /  -4.6 °C 18.7 °F /  -7.4 °C 1011.7 in /  34256.2 hPa WSW 1.9 mph /  3.1 km/h 2.3 mph /  3.7 km/h 73 % 0.0 in /  0 mm
22:30 21.8 °F /  -5.7 °C 18.8 °F /  -7.3 °C 1012.8 in /  34293.4 hPa WSW 3.2 mph /  5.1 km/h 4.8 mph /  7.7 km/h 83 % 0.0 in /  0 mm
22:31 23.8 °F /  -4.6 °C 18.7 °F /  -7.4 °C 1012.8 in /  34293.4 hPa SW 3.7 mph /  6 km/h 3.7 mph /  6 km/h 73 % 0.0 in /  0 mm
22:36 23.7 °F /  -4.6 °C 18.6 °F /  -7.4 °C 1012.8 in /  34293.4 hPa WSW 3.7 mph /  6 km/h 3.7 mph /  6 km/h 73 % 0.0 in /  0 mm
22:40 21.9 °F /  -5.6 °C 19.1 °F /  -7.2 °C 1011.7 in /  34256.2 hPa Calm   3.2 mph /  5.1 km/h 84 % 0.0 in /  0 mm
22:41 23.7 °F /  -4.6 °C 18.8 °F /  -7.3 °C 1012.8 in /  34293.4 hPa Calm     74 % 0.0 in /  0 mm
22:46 23.8 °F /  -4.6 °C 18.9 °F /  -7.3 °C 1012.8 in /  34293.4 hPa NNE 1.9 mph /  3.1 km/h   74 % 0.0 in /  0 mm
22:50 21.8 °F /  -5.7 °C 19.2 °F /  -7.1 °C 1011.7 in /  34256.2 hPa ESE 3.2 mph /  5.1 km/h 3.2 mph /  5.1 km/h 85 % 0.0 in /  0 mm
22:51 23.8 °F /  -4.6 °C 18.9 °F /  -7.3 °C 1012.8 in /  34293.4 hPa West 1.9 mph /  3.1 km/h   74 % 0.0 in /  0 mm
22:56 23.8 °F /  -4.6 °C 18.9 °F /  -7.3 °C 1012.8 in /  34293.4 hPa West 3.7 mph /  6 km/h 3.7 mph /  6 km/h 74 % 0.0 in /  0 mm
23:00 21.5 °F /  -5.8 °C 18.7 °F /  -7.4 °C 1011.7 in /  34256.2 hPa South 3.2 mph /  5.1 km/h 4.8 mph /  7.7 km/h 84 % 0.0 in /  0 mm
23:01 23.8 °F /  -4.6 °C 18.9 °F /  -7.3 °C 1013.8 in /  34327.3 hPa Calm     74 % 0.0 in /  0 mm
23:06 23.8 °F /  -4.6 °C 18.9 °F /  -7.3 °C 1013.8 in /  34327.3 hPa NNW 3.7 mph /  6 km/h 3.7 mph /  6 km/h 74 % 0.0 in /  0 mm
23:10 21.3 °F /  -5.9 °C 18.7 °F /  -7.4 °C 1010.7 in /  34222.3 hPa SW 3.2 mph /  5.1 km/h 3.2 mph /  5.1 km/h 85 % 0.0 in /  0 mm
23:11 23.8 °F /  -4.6 °C 18.9 °F /  -7.3 °C 1013.8 in /  34327.3 hPa WNW 1.9 mph /  3.1 km/h   74 % 0.0 in /  0 mm
23:16 23.7 °F /  -4.6 °C 18.8 °F /  -7.3 °C 1012.8 in /  34293.4 hPa East 1.9 mph /  3.1 km/h 1.9 mph /  3.1 km/h 74 % 0.0 in /  0 mm
23:20 21.2 °F /  -6 °C 18.6 °F /  -7.4 °C 1010.7 in /  34222.3 hPa SW 1.6 mph /  2.6 km/h 3.2 mph /  5.1 km/h 85 % 0.0 in /  0 mm
23:21 23.7 °F /  -4.6 °C 18.8 °F /  -7.3 °C 1012.8 in /  34293.4 hPa ENE 2.6 mph /  4.2 km/h   74 % 0.0 in /  0 mm
23:26 23.7 °F /  -4.6 °C 18.8 °F /  -7.3 °C 1012.8 in /  34293.4 hPa East 9.3 mph /  15 km/h 9.3 mph /  15 km/h 74 % 0.0 in /  0 mm
23:30 21.2 °F /  -6 °C 18.6 °F /  -7.4 °C 1011.7 in /  34256.2 hPa SW 1.6 mph /  2.6 km/h 3.2 mph /  5.1 km/h 85 % 0.0 in /  0 mm
23:31 23.6 °F /  -4.7 °C 18.7 °F /  -7.4 °C 1012.8 in /  34293.4 hPa WSW 3.7 mph /  6 km/h 3.7 mph /  6 km/h 74 % 0.0 in /  0 mm
23:36 23.6 °F /  -4.7 °C 18.7 °F /  -7.4 °C 1012.8 in /  34293.4 hPa ENE 1.9 mph /  3.1 km/h   74 % 0.0 in /  0 mm
23:40 21.2 °F /  -6 °C 18.8 °F /  -7.3 °C 1010.7 in /  34222.3 hPa Calm   3.2 mph /  5.1 km/h 86 % 0.0 in /  0 mm
23:41 23.6 °F /  -4.7 °C 18.9 °F /  -7.3 °C 1012.8 in /  34293.4 hPa NE 3.9 mph /  6.3 km/h 3.9 mph /  6.3 km/h 75 % 0.0 in /  0 mm
23:46 23.5 °F /  -4.7 °C 18.8 °F /  -7.3 °C 1012.8 in /  34293.4 hPa NE 1.9 mph /  3.1 km/h 1.9 mph /  3.1 km/h 75 % 0.0 in /  0 mm
23:50 21.3 °F /  -5.9 °C 18.7 °F /  -7.4 °C 1010.7 in /  34222.3 hPa West 3.2 mph /  5.1 km/h 4.8 mph /  7.7 km/h 85 % 0.0 in /  0 mm
23:51 23.3 °F /  -4.8 °C 18.8 °F /  -7.3 °C 1012.8 in /  34293.4 hPa ENE 3.7 mph /  6 km/h 3.7 mph /  6 km/h 76 % 0.0 in /  0 mm
23:56 23.3 °F /  -4.8 °C 18.8 °F /  -7.3 °C 1012.8 in /  34293.4 hPa NE 1.9 mph /  3.1 km/h   76 % 0.0 in /  0 mm
Meteo Sesrovires
Elogis d' Weather Underground - 3.5 mb

Guio original per  Jim McMurry - jmcmurry@mwt.net Adaptat per a la plantilla per  Wim van der Kuil - Leuven-Template.eu

Trobareu la nostra informacio del temps tambe a:

Weather Underground

AWEKAS